Time;durP1;ratioP1;P1;durP2;ratioP2;P2;SDS_P1;SDS_P2;PMS_P1;PMS_P2;Temp;Humidity;BMP_temperature;BMP_pressure;BME280_temperature;BME280_humidity;BME280_pressure;Samples;Min_cycle;Max_cycle;Signal;HPM_P1;HPM_P2
2022/01/23 00:02:07;;;;;;;54.83;21.27;;;;;;;;;;5005315;28;20029;-78
2022/01/23 00:04:32;;;;;;;55.90;23.00;;;;;;;;;;5006915;28;20065;-78
2022/01/23 00:06:59;;;;;;;54.42;22.40;;;;;;;;;;5000515;28;20529;-80
2022/01/23 00:09:24;;;;;;;46.67;20.20;;;;;;;;;;5007005;28;20503;-79
2022/01/23 00:11:53;;;;;;;51.13;22.02;;;;;;;;;;5009034;28;20042;-79
2022/01/23 00:19:39;;;;;;;52.17;21.00;;;;;;;;;;4976514;28;20069;-79
2022/01/23 00:22:04;;;;;;;42.75;19.63;;;;;;;;;;4971102;28;20030;-80
2022/01/23 00:32:41;;;;;;;43.83;19.42;;;;;;;;;;4988216;28;20531;-79
2022/01/23 00:35:06;;;;;;;45.38;18.65;;;;;;;;;;4990839;28;20043;-78
2022/01/23 00:37:31;;;;;;;46.05;18.75;;;;;;;;;;4990282;28;20015;-80
2022/01/23 00:39:57;;;;;;;40.30;19.40;;;;;;;;;;4995653;28;20031;-79
2022/01/23 00:42:22;;;;;;;43.53;19.25;;;;;;;;;;4975428;28;20029;-79
2022/01/23 00:44:53;;;;;;;41.65;19.42;;;;;;;;;;4988821;28;20037;-80
2022/01/23 00:47:19;;;;;;;38.55;17.80;;;;;;;;;;4988826;28;20056;-79
2022/01/23 00:49:44;;;;;;;39.70;18.73;;;;;;;;;;4989175;28;20485;-79
2022/01/23 00:52:09;;;;;;;40.22;18.60;;;;;;;;;;4997897;28;20034;-79
2022/01/23 00:54:34;;;;;;;38.22;19.08;;;;;;;;;;5019832;28;20127;-78
2022/01/23 00:57:00;;;;;;;39.03;18.38;;;;;;;;;;5028450;28;20017;-79
2022/01/23 00:59:25;;;;;;;39.10;17.73;;;;;;;;;;5028450;28;20487;-78
2022/01/23 01:01:50;;;;;;;40.90;19.23;;;;;;;;;;5025979;28;20097;-78
2022/01/23 01:04:15;;;;;;;37.97;18.73;;;;;;;;;;5018082;28;20017;-82
2022/01/23 01:06:41;;;;;;;36.45;17.17;;;;;;;;;;5018026;28;20164;-78
2022/01/23 01:09:08;;;;;;;36.72;17.92;;;;;;;;;;5021731;28;20753;-79
2022/01/23 01:30:26;;;;;;;37.92;17.58;;;;;;;;;;5018585;28;20105;-78
2022/01/23 01:35:31;;;;;;;35.13;16.52;;;;;;;;;;5026977;28;20080;-80
2022/01/23 01:37:56;;;;;;;;;;;;;;;;;;5019990;28;20113;-79
2022/01/23 01:40:22;;;;;;;36.15;16.48;;;;;;;;;;5016903;28;20008;-79
2022/01/23 01:42:48;;;;;;;35.25;16.70;;;;;;;;;;5019864;28;20363;-80
2022/01/23 01:45:13;;;;;;;36.30;18.52;;;;;;;;;;5022593;28;20108;-79
2022/01/23 01:47:46;;;;;;;39.67;17.58;;;;;;;;;;5026469;28;20033;-77
2022/01/23 01:50:11;;;;;;;35.28;17.85;;;;;;;;;;5017626;28;20022;-78
2022/01/23 01:52:36;;;;;;;33.88;17.52;;;;;;;;;;5028496;28;20545;-78
2022/01/23 01:55:05;;;;;;;36.35;17.35;;;;;;;;;;5027199;28;20032;-79
2022/01/23 01:57:39;;;;;;;40.83;19.27;;;;;;;;;;5019115;28;20026;-77
2022/01/23 02:00:36;;;;;;;38.53;18.23;;;;;;;;;;5024305;28;20070;-78
2022/01/23 02:08:25;;;;;;;39.35;19.17;;;;;;;;;;5023780;28;20044;-79
2022/01/23 02:10:54;;;;;;;37.00;18.77;;;;;;;;;;5022754;28;20029;-78
2022/01/23 02:51:29;;;;;;;38.78;17.50;;;;;;;;;;5008339;28;20431;-79
2022/01/23 02:56:44;;;;;;;37.72;19.02;;;;;;;;;;5025281;28;20064;-79
2022/01/23 02:59:30;;;;;;;37.28;18.80;;;;;;;;;;5027666;28;20676;-79
2022/01/23 03:02:12;;;;;;;38.60;19.20;;;;;;;;;;5028881;28;20029;-79
2022/01/23 03:04:40;;;;;;;37.75;18.75;;;;;;;;;;5024295;28;20102;-77
2022/01/23 03:13:10;;;;;;;39.63;18.45;;;;;;;;;;5025963;28;20105;-79
2022/01/23 03:15:13;;;;;;;40.03;19.13;;;;;;;;;;5025382;28;20568;-78
2022/01/23 03:26:12;;;;;;;38.03;18.55;;;;;;;;;;5025775;28;20041;-76
2022/01/23 03:31:27;;;;;;;40.22;19.80;;;;;;;;;;5024661;28;20345;-77
2022/01/23 03:33:53;;;;;;;39.60;17.90;;;;;;;;;;5028007;28;20064;-78
2022/01/23 03:36:18;;;;;;;41.40;18.98;;;;;;;;;;5019912;28;20021;-78
2022/01/23 03:38:44;;;;;;;36.17;17.00;;;;;;;;;;5022102;28;20025;-78
2022/01/23 03:41:10;;;;;;;41.92;18.75;;;;;;;;;;5022458;28;20032;-78
2022/01/23 03:43:38;;;;;;;37.10;17.95;;;;;;;;;;5029195;28;20037;-77
2022/01/23 03:51:14;;;;;;;33.17;16.42;;;;;;;;;;5026375;28;20435;-76
2022/01/23 03:53:40;;;;;;;31.63;16.00;;;;;;;;;;5029158;28;20041;-77
2022/01/23 03:56:05;;;;;;;36.60;16.88;;;;;;;;;;5025261;28;20056;-76
2022/01/23 03:58:31;;;;;;;35.85;16.08;;;;;;;;;;5026900;28;20036;-78
2022/01/23 04:00:56;;;;;;;32.42;14.80;;;;;;;;;;5025343;28;20439;-80
2022/01/23 04:03:21;;;;;;;30.98;15.00;;;;;;;;;;5024312;28;20022;-79
2022/01/23 04:05:47;;;;;;;31.98;15.25;;;;;;;;;;5024724;28;20067;-76
2022/01/23 04:08:12;;;;;;;32.75;16.00;;;;;;;;;;5023965;28;20052;-76
2022/01/23 04:10:38;;;;;;;28.90;15.23;;;;;;;;;;5021675;28;20033;-78
2022/01/23 04:14:08;;;;;;;31.70;15.68;;;;;;;;;;5019647;28;20025;-77
2022/01/23 04:16:16;;;;;;;28.33;13.98;;;;;;;;;;5017884;28;20111;-77
2022/01/23 04:31:37;;;;;;;29.05;14.40;;;;;;;;;;5018997;28;20042;-78
2022/01/23 04:46:10;;;;;;;27.95;13.23;;;;;;;;;;4981558;28;20029;-78
2022/01/23 04:59:46;;;;;;;24.73;12.60;;;;;;;;;;4909913;29;20092;-79
2022/01/23 05:04:41;;;;;;;25.83;12.13;;;;;;;;;;4910521;29;20051;-77
2022/01/23 05:07:09;;;;;;;24.13;12.02;;;;;;;;;;4909035;29;20111;-79
2022/01/23 05:09:35;;;;;;;23.85;12.50;;;;;;;;;;4910260;29;20133;-79
2022/01/23 05:12:02;;;;;;;22.83;12.43;;;;;;;;;;4921569;29;20130;-79
2022/01/23 05:14:31;;;;;;;18.27;10.75;;;;;;;;;;4941493;29;20047;-80
2022/01/23 05:16:56;;;;;;;23.02;11.63;;;;;;;;;;4945096;29;20530;-78
2022/01/23 05:19:22;;;;;;;22.67;12.45;;;;;;;;;;4947651;28;20059;-80
2022/01/23 05:24:26;;;;;;;25.30;12.43;;;;;;;;;;4950784;29;20029;-76
2022/01/23 05:26:57;;;;;;;22.27;11.60;;;;;;;;;;4967679;28;20065;-77
2022/01/23 05:29:22;;;;;;;24.38;11.82;;;;;;;;;;5034311;28;20433;-78
2022/01/23 05:31:50;;;;;;;22.38;11.45;;;;;;;;;;5023795;28;20053;-79
2022/01/23 05:34:15;;;;;;;24.00;11.40;;;;;;;;;;5026004;28;20086;-77
2022/01/23 05:36:40;;;;;;;22.73;11.43;;;;;;;;;;5029630;28;20437;-78
2022/01/23 05:39:05;;;;;;;23.38;11.55;;;;;;;;;;5024823;28;20040;-76
2022/01/23 05:41:31;;;;;;;20.85;11.45;;;;;;;;;;5024321;28;20141;-78
2022/01/23 05:43:56;;;;;;;21.60;11.02;;;;;;;;;;5026054;28;20056;-79
2022/01/23 05:46:22;;;;;;;22.48;10.70;;;;;;;;;;5025830;28;20036;-79
2022/01/23 05:48:47;;;;;;;21.98;11.27;;;;;;;;;;5030007;28;20025;-80
2022/01/23 05:51:12;;;;;;;21.90;10.70;;;;;;;;;;5024183;28;20456;-78
2022/01/23 05:53:40;;;;;;;18.60;10.40;;;;;;;;;;5026001;28;20083;-80
2022/01/23 05:56:06;;;;;;;21.23;10.93;;;;;;;;;;5026269;28;20037;-80
2022/01/23 05:58:31;;;;;;;21.65;10.43;;;;;;;;;;5023903;28;20071;-78
2022/01/23 06:00:56;;;;;;;20.52;11.30;;;;;;;;;;5025703;28;20036;-80
2022/01/23 06:03:21;;;;;;;20.60;11.60;;;;;;;;;;5031142;28;20132;-78
2022/01/23 06:05:47;;;;;;;19.50;10.68;;;;;;;;;;5032631;28;20036;-81
2022/01/23 06:08:12;;;;;;;18.88;10.77;;;;;;;;;;5031843;28;20112;-79
2022/01/23 06:10:53;;;;;;;20.45;10.63;;;;;;;;;;5028224;28;20040;-79
2022/01/23 06:13:18;;;;;;;18.75;10.77;;;;;;;;;;5030471;28;20023;-81
2022/01/23 06:15:43;;;;;;;18.02;10.35;;;;;;;;;;5027358;28;20064;-79
2022/01/23 06:18:08;;;;;;;21.77;11.10;;;;;;;;;;5030736;28;20381;-79
2022/01/23 06:20:33;;;;;;;23.98;11.38;;;;;;;;;;5024837;28;20041;-79
2022/01/23 06:22:59;;;;;;;19.15;10.65;;;;;;;;;;5028972;28;20026;-79
2022/01/23 06:25:32;;;;;;;22.33;12.05;;;;;;;;;;5025798;28;20124;-78
2022/01/23 06:27:58;;;;;;;21.42;11.55;;;;;;;;;;5027682;28;20813;-80
2022/01/23 06:30:23;;;;;;;21.52;11.90;;;;;;;;;;5024168;28;20033;-79
2022/01/23 06:32:48;;;;;;;24.80;12.00;;;;;;;;;;5026595;28;20029;-77
2022/01/23 06:35:13;;;;;;;26.55;12.90;;;;;;;;;;5028523;28;20037;-78
2022/01/23 06:37:39;;;;;;;21.55;12.00;;;;;;;;;;5019934;28;20041;-77
2022/01/23 06:40:04;;;;;;;23.35;12.82;;;;;;;;;;5020646;28;20049;-79
2022/01/23 06:42:29;;;;;;;24.30;12.70;;;;;;;;;;5030751;28;20025;-79
2022/01/23 06:44:55;;;;;;;23.00;11.27;;;;;;;;;;5030889;28;20055;-79
2022/01/23 06:47:20;;;;;;;22.45;13.20;;;;;;;;;;5028503;28;20483;-80
2022/01/23 06:49:45;;;;;;;23.75;12.48;;;;;;;;;;5023483;28;20481;-80
2022/01/23 06:52:10;;;;;;;28.38;13.63;;;;;;;;;;5030881;28;20018;-79
2022/01/23 06:54:35;;;;;;;23.23;12.18;;;;;;;;;;5026341;28;20036;-78
2022/01/23 06:57:00;;;;;;;23.55;13.02;;;;;;;;;;5026831;28;20397;-80
2022/01/23 06:59:26;;;;;;;24.40;13.25;;;;;;;;;;5029609;28;20037;-77
2022/01/23 07:01:51;;;;;;;25.33;13.40;;;;;;;;;;5020259;28;20021;-77
2022/01/23 07:04:16;;;;;;;26.38;13.68;;;;;;;;;;5027574;28;20029;-79
2022/01/23 07:06:41;;;;;;;25.27;13.98;;;;;;;;;;5026741;28;20057;-81
2022/01/23 07:09:07;;;;;;;26.48;13.82;;;;;;;;;;5028157;28;20039;-79
2022/01/23 07:11:32;;;;;;;27.55;15.00;;;;;;;;;;5029728;28;20440;-81
2022/01/23 07:13:57;;;;;;;30.27;15.38;;;;;;;;;;5028512;28;20084;-79
2022/01/23 07:16:22;;;;;;;26.10;14.98;;;;;;;;;;5023584;28;20053;-78
2022/01/23 07:18:47;;;;;;;31.42;15.00;;;;;;;;;;5030564;28;20155;-82
2022/01/23 07:21:13;;;;;;;28.05;14.20;;;;;;;;;;5029669;28;20095;-80
2022/01/23 07:23:38;;;;;;;27.33;15.10;;;;;;;;;;5025349;28;20037;-79
2022/01/23 07:26:03;;;;;;;25.85;14.45;;;;;;;;;;5024139;28;20022;-82
2022/01/23 07:28:38;;;;;;;26.30;14.30;;;;;;;;;;5026273;28;20068;-81
2022/01/23 07:31:06;;;;;;;27.52;14.35;;;;;;;;;;5028648;28;20041;-78
2022/01/23 07:33:33;;;;;;;25.88;14.05;;;;;;;;;;5022685;28;20036;-76
2022/01/23 07:35:58;;;;;;;28.95;15.05;;;;;;;;;;5031555;28;20029;-78
2022/01/23 07:38:24;;;;;;;27.55;14.95;;;;;;;;;;5029264;28;20183;-79
2022/01/23 07:40:49;;;;;;;25.75;13.80;;;;;;;;;;5027579;28;20044;-79
2022/01/23 07:43:14;;;;;;;26.00;14.30;;;;;;;;;;5031900;28;20030;-78
2022/01/23 07:45:40;;;;;;;26.55;14.50;;;;;;;;;;5030125;28;20026;-79
2022/01/23 07:48:05;;;;;;;24.67;13.73;;;;;;;;;;5027924;28;20165;-78
2022/01/23 07:50:30;;;;;;;24.10;14.43;;;;;;;;;;5027220;28;20425;-78
2022/01/23 07:52:56;;;;;;;26.27;14.20;;;;;;;;;;5032675;28;20036;-79
2022/01/23 07:55:21;;;;;;;27.90;14.93;;;;;;;;;;5029939;28;20130;-79
2022/01/23 07:57:46;;;;;;;25.08;14.15;;;;;;;;;;5031381;28;20032;-78
2022/01/23 08:00:12;;;;;;;25.08;14.48;;;;;;;;;;5022668;28;20527;-78
2022/01/23 08:02:37;;;;;;;24.58;13.55;;;;;;;;;;5024014;28;20056;-81
2022/01/23 08:05:03;;;;;;;24.17;13.52;;;;;;;;;;5025421;28;20476;-79
2022/01/23 08:09:56;;;;;;;25.00;14.40;;;;;;;;;;5033390;28;20479;-78
2022/01/23 08:12:21;;;;;;;23.15;12.95;;;;;;;;;;5028870;28;20044;-80
2022/01/23 08:14:47;;;;;;;25.95;13.45;;;;;;;;;;5027305;28;20041;-78
2022/01/23 08:17:12;;;;;;;28.17;14.07;;;;;;;;;;5024575;28;20026;-79
2022/01/23 08:19:37;;;;;;;24.27;13.50;;;;;;;;;;5028692;28;20033;-78
2022/01/23 08:22:02;;;;;;;22.88;13.20;;;;;;;;;;5020564;28;20092;-77
2022/01/23 08:24:27;;;;;;;25.15;12.90;;;;;;;;;;5022404;28;20025;-79
2022/01/23 08:26:53;;;;;;;27.67;14.32;;;;;;;;;;5028822;28;20029;-78
2022/01/23 08:29:18;;;;;;;27.30;14.45;;;;;;;;;;5029941;28;20033;-79
2022/01/23 08:31:45;;;;;;;25.73;13.35;;;;;;;;;;5028003;28;20421;-78
2022/01/23 08:34:10;;;;;;;25.60;14.15;;;;;;;;;;5018714;28;20038;-78
2022/01/23 08:36:36;;;;;;;25.67;13.77;;;;;;;;;;5038972;28;20038;-79
2022/01/23 08:39:01;;;;;;;26.55;14.10;;;;;;;;;;5029553;28;20029;-80
2022/01/23 08:44:10;;;;;;;31.35;15.30;;;;;;;;;;5022431;28;20033;-78
2022/01/23 08:46:35;;;;;;;27.55;14.88;;;;;;;;;;5023032;28;20018;-78
2022/01/23 08:49:00;;;;;;;27.13;15.20;;;;;;;;;;5029478;28;20044;-80
2022/01/23 08:51:26;;;;;;;24.80;15.18;;;;;;;;;;5030353;28;20037;-78
2022/01/23 08:53:51;;;;;;;27.23;14.95;;;;;;;;;;5020740;28;20432;-69
2022/01/23 08:56:16;;;;;;;25.10;14.70;;;;;;;;;;5019652;28;20030;-70
2022/01/23 08:58:41;;;;;;;26.60;14.52;;;;;;;;;;5027019;28;20052;-69
2022/01/23 09:01:06;;;;;;;28.20;16.27;;;;;;;;;;5021305;28;20064;-69
2022/01/23 09:03:32;;;;;;;27.08;15.55;;;;;;;;;;5022575;28;20034;-68
2022/01/23 09:05:57;;;;;;;25.65;15.02;;;;;;;;;;5027921;28;20029;-68
2022/01/23 09:08:22;;;;;;;26.55;14.98;;;;;;;;;;5028384;28;20029;-69
2022/01/23 09:10:55;;;;;;;31.17;16.52;;;;;;;;;;5029778;28;20024;-61
2022/01/23 09:13:39;;;;;;;27.60;15.30;;;;;;;;;;5028739;28;20472;-61
2022/01/23 09:16:05;;;;;;;25.25;14.65;;;;;;;;;;5028097;28;20037;-60
2022/01/23 09:18:30;;;;;;;28.77;14.45;;;;;;;;;;5026905;28;20017;-60
2022/01/23 09:20:55;;;;;;;28.58;15.50;;;;;;;;;;5016738;28;20040;-61
2022/01/23 09:23:21;;;;;;;25.45;14.50;;;;;;;;;;5026886;28;20029;-61
2022/01/23 09:25:46;;;;;;;26.73;15.55;;;;;;;;;;5028806;28;20156;-62
2022/01/23 09:28:12;;;;;;;27.98;14.85;;;;;;;;;;5024400;28;20051;-62
2022/01/23 09:30:39;;;;;;;25.98;15.27;;;;;;;;;;5025765;28;20040;-63
2022/01/23 09:33:04;;;;;;;26.48;14.68;;;;;;;;;;5028852;28;20029;-62
2022/01/23 09:35:29;;;;;;;26.70;14.82;;;;;;;;;;5026008;28;20033;-62
2022/01/23 09:37:55;;;;;;;25.30;14.13;;;;;;;;;;5017477;28;20025;-61
2022/01/23 09:40:20;;;;;;;24.02;14.20;;;;;;;;;;5027343;28;20032;-61
2022/01/23 09:43:04;;;;;;;27.27;15.23;;;;;;;;;;5023600;28;20025;-61
2022/01/23 09:45:30;;;;;;;25.65;14.05;;;;;;;;;;5020997;28;20140;-62
2022/01/23 09:47:55;;;;;;;26.25;14.55;;;;;;;;;;5023121;28;20455;-61
2022/01/23 09:50:21;;;;;;;23.55;14.25;;;;;;;;;;5019634;28;20410;-62
2022/01/23 09:52:46;;;;;;;24.42;13.98;;;;;;;;;;5021580;28;20424;-61
2022/01/23 09:55:12;;;;;;;26.35;14.50;;;;;;;;;;5016968;28;20432;-62
2022/01/23 09:57:38;;;;;;;24.23;14.02;;;;;;;;;;5019848;28;20137;-62
2022/01/23 10:00:06;;;;;;;26.48;15.77;;;;;;;;;;5018684;28;20080;-62
2022/01/23 10:02:31;;;;;;;23.42;13.52;;;;;;;;;;5024391;28;20260;-62
2022/01/23 10:04:56;;;;;;;25.27;14.20;;;;;;;;;;5024425;28;20148;-62
2022/01/23 10:07:22;;;;;;;23.48;13.98;;;;;;;;;;5022954;28;20041;-62
2022/01/23 10:09:53;;;;;;;21.85;13.98;;;;;;;;;;5021573;28;20029;-62
2022/01/23 10:12:19;;;;;;;22.30;13.50;;;;;;;;;;5023572;28;20025;-61
2022/01/23 10:14:44;;;;;;;23.63;13.20;;;;;;;;;;5017713;28;20036;-61
2022/01/23 10:17:09;;;;;;;21.20;12.80;;;;;;;;;;5019448;28;20064;-61
2022/01/23 10:19:35;;;;;;;23.65;13.20;;;;;;;;;;5022846;28;20116;-61
2022/01/23 10:22:02;;;;;;;23.15;13.25;;;;;;;;;;5020450;28;20100;-61
2022/01/23 10:24:29;;;;;;;19.30;12.02;;;;;;;;;;5028547;28;20033;-61
2022/01/23 10:26:57;;;;;;;20.98;13.50;;;;;;;;;;5054996;28;20064;-63
2022/01/23 10:29:27;;;;;;;20.67;12.68;;;;;;;;;;5066203;28;20020;-61
2022/01/23 10:32:07;;;;;;;20.13;12.30;;;;;;;;;;5056209;28;20029;-61
2022/01/23 10:34:43;;;;;;;20.15;12.88;;;;;;;;;;5064082;28;20361;-61
2022/01/23 10:37:09;;;;;;;21.42;13.23;;;;;;;;;;5060942;28;20032;-61
2022/01/23 10:39:41;;;;;;;18.85;12.35;;;;;;;;;;5057016;28;20024;-62
2022/01/23 10:42:24;;;;;;;20.40;12.35;;;;;;;;;;5061724;28;20024;-61
2022/01/23 10:47:45;;;;;;;21.75;13.32;;;;;;;;;;5065232;28;20078;-62
2022/01/23 10:50:11;;;;;;;21.05;12.82;;;;;;;;;;5071387;28;20142;-61
2022/01/23 10:52:43;;;;;;;22.33;12.38;;;;;;;;;;5068563;28;20742;-61
2022/01/23 10:55:21;;;;;;;23.35;12.75;;;;;;;;;;5070743;28;20044;-61
2022/01/23 10:57:47;;;;;;;22.40;13.15;;;;;;;;;;5068584;28;20032;-61
2022/01/23 11:00:23;;;;;;;21.00;13.38;;;;;;;;;;5067140;28;20047;-61
2022/01/23 11:02:49;;;;;;;19.90;12.48;;;;;;;;;;5066049;28;20036;-62
2022/01/23 11:05:16;;;;;;;20.95;12.90;;;;;;;;;;5067645;28;20032;-61
2022/01/23 11:07:44;;;;;;;21.58;13.27;;;;;;;;;;5058791;28;20049;-62
2022/01/23 11:10:11;;;;;;;20.45;13.23;;;;;;;;;;5067900;28;20047;-62
2022/01/23 11:17:57;;;;;;;21.20;13.00;;;;;;;;;;5066851;28;20121;-62
2022/01/23 11:20:31;;;;;;;22.98;13.18;;;;;;;;;;5065081;28;20028;-61
2022/01/23 11:23:00;;;;;;;20.40;12.43;;;;;;;;;;5068348;28;20394;-62
2022/01/23 11:25:25;;;;;;;21.90;13.27;;;;;;;;;;5069888;28;20095;-61
2022/01/23 11:28:00;;;;;;;20.90;13.13;;;;;;;;;;5067626;28;20194;-62
2022/01/23 11:30:33;;;;;;;21.55;13.07;;;;;;;;;;5066841;28;20035;-61
2022/01/23 11:32:59;;;;;;;20.02;12.15;;;;;;;;;;5059880;28;20104;-61
2022/01/23 11:35:26;;;;;;;21.80;13.57;;;;;;;;;;5064012;28;20143;-61
2022/01/23 11:37:52;;;;;;;20.35;12.57;;;;;;;;;;5059781;28;20024;-61
2022/01/23 11:54:02;;;;;;;20.80;13.57;;;;;;;;;;5047561;28;20120;-62
2022/01/23 11:56:28;;;;;;;20.38;12.88;;;;;;;;;;5046063;28;20021;-61
2022/01/23 11:59:09;;;;;;;23.98;14.45;;;;;;;;;;5040739;28;20043;-62
2022/01/23 12:01:34;;;;;;;22.13;13.90;;;;;;;;;;5039845;28;20547;-62
2022/01/23 12:04:08;;;;;;;22.45;13.80;;;;;;;;;;5038676;28;20033;-63
2022/01/23 12:06:35;;;;;;;20.15;12.57;;;;;;;;;;5037244;28;20080;-62
2022/01/23 12:09:09;;;;;;;19.42;11.93;;;;;;;;;;5043716;28;20036;-62
2022/01/23 12:11:41;;;;;;;20.98;12.85;;;;;;;;;;5044144;28;20062;-62
2022/01/23 12:16:56;;;;;;;20.50;12.45;;;;;;;;;;5002656;28;20551;-62
2022/01/23 12:19:23;;;;;;;18.38;10.95;;;;;;;;;;5006212;28;20486;-62
2022/01/23 12:21:50;;;;;;;18.92;11.93;;;;;;;;;;5017536;28;20215;-62
2022/01/23 12:24:16;;;;;;;18.45;11.77;;;;;;;;;;5020157;28;20032;-62
2022/01/23 12:26:42;;;;;;;21.02;13.35;;;;;;;;;;5027323;28;20378;-62
2022/01/23 12:29:14;;;;;;;20.83;12.45;;;;;;;;;;5027331;28;20033;-62
2022/01/23 12:31:39;;;;;;;20.17;12.63;;;;;;;;;;5026201;28;20666;-62
2022/01/23 12:34:04;;;;;;;23.52;13.50;;;;;;;;;;5022191;28;20128;-62
2022/01/23 12:36:31;;;;;;;19.52;12.32;;;;;;;;;;5024605;28;20100;-62
2022/01/23 12:39:05;;;;;;;19.25;11.90;;;;;;;;;;5020751;28;20123;-62
2022/01/23 12:41:33;;;;;;;19.77;11.90;;;;;;;;;;5023035;28;20041;-62
2022/01/23 12:44:04;;;;;;;16.65;11.02;;;;;;;;;;5025564;28;20354;-61
2022/01/23 12:46:31;;;;;;;19.35;11.55;;;;;;;;;;5023402;28;20057;-62
2022/01/23 12:48:59;;;;;;;16.90;10.07;;;;;;;;;;5016176;28;20796;-61
2022/01/23 12:51:32;;;;;;;18.02;10.32;;;;;;;;;;5023932;28;20029;-62
2022/01/23 12:53:58;;;;;;;18.00;10.73;;;;;;;;;;5045559;28;20135;-62
2022/01/23 12:56:35;;;;;;;18.30;10.80;;;;;;;;;;5063241;28;20115;-61
2022/01/23 12:59:07;;;;;;;18.63;10.57;;;;;;;;;;5065328;28;20316;-61
2022/01/23 13:01:32;;;;;;;19.50;11.70;;;;;;;;;;5060998;28;20063;-61
2022/01/23 13:03:59;;;;;;;19.30;11.45;;;;;;;;;;5065955;28;20432;-62
2022/01/23 13:06:37;;;;;;;18.58;10.95;;;;;;;;;;5065614;28;20398;-62
2022/01/23 13:09:29;;;;;;;20.50;12.10;;;;;;;;;;5062749;28;20036;-62
2022/01/23 13:14:43;;;;;;;25.80;14.60;;;;;;;;;;5060142;28;20036;-62
2022/01/23 13:30:54;;;;;;;25.38;14.48;;;;;;;;;;5063504;28;20486;-63
2022/01/23 13:33:21;;;;;;;24.58;14.38;;;;;;;;;;5065851;28;20039;-61
2022/01/23 13:35:51;;;;;;;23.60;13.23;;;;;;;;;;5067871;28;20032;-60
2022/01/23 13:38:17;;;;;;;23.48;13.35;;;;;;;;;;5064924;28;20043;-59
2022/01/23 13:40:43;;;;;;;24.20;13.85;;;;;;;;;;5068613;28;20024;-63
2022/01/23 13:59:08;;;;;;;21.35;11.85;;;;;;;;;;5064484;28;20035;-63
2022/01/23 14:01:47;;;;;;;23.10;12.65;;;;;;;;;;5067349;28;20034;-62
2022/01/23 14:04:20;;;;;;;19.40;11.63;;;;;;;;;;5056455;28;20020;-63
2022/01/23 14:06:45;;;;;;;23.27;12.23;;;;;;;;;;5064521;28;20080;-63
2022/01/23 14:09:12;;;;;;;18.55;10.75;;;;;;;;;;5066320;28;20313;-62
2022/01/23 14:11:37;;;;;;;16.70;9.98;;;;;;;;;;5063581;28;20052;-62
2022/01/23 14:14:12;;;;;;;20.50;12.27;;;;;;;;;;5056137;28;20409;-65
2022/01/23 14:16:38;;;;;;;20.35;11.00;;;;;;;;;;5061776;28;20028;-61
2022/01/23 14:19:33;;;;;;;19.60;10.90;;;;;;;;;;5064556;28;20059;-63
2022/01/23 14:21:59;;;;;;;19.17;11.05;;;;;;;;;;5045698;28;20029;-63
2022/01/23 14:24:33;;;;;;;20.10;10.68;;;;;;;;;;5047815;28;20025;-62
2022/01/23 14:26:58;;;;;;;18.88;10.68;;;;;;;;;;5045706;28;20049;-62
2022/01/23 14:29:24;;;;;;;17.38;9.60;;;;;;;;;;5048368;28;20023;-61
2022/01/23 14:32:05;;;;;;;17.65;9.85;;;;;;;;;;5045551;28;20279;-61
2022/01/23 14:34:31;;;;;;;14.60;8.88;;;;;;;;;;5039804;28;20040;-63
2022/01/23 14:36:58;;;;;;;16.20;8.75;;;;;;;;;;5041328;28;20702;-62
2022/01/23 14:39:24;;;;;;;15.50;8.77;;;;;;;;;;5035342;28;20047;-63
2022/01/23 14:41:49;;;;;;;15.35;8.38;;;;;;;;;;5044884;28;20128;-63
2022/01/23 14:44:20;;;;;;;14.13;8.52;;;;;;;;;;5041248;28;20052;-63
2022/01/23 14:46:49;;;;;;;17.02;9.32;;;;;;;;;;5044917;28;20075;-62
2022/01/23 14:49:22;;;;;;;18.98;8.80;;;;;;;;;;5044559;28;20029;-62
2022/01/23 14:51:47;;;;;;;18.55;10.73;;;;;;;;;;5045235;28;20540;-61
2022/01/23 14:54:13;;;;;;;19.20;10.40;;;;;;;;;;5048038;28;20113;-60
2022/01/23 14:56:39;;;;;;;19.83;11.30;;;;;;;;;;5040934;28;20028;-60
2022/01/23 14:59:14;;;;;;;22.02;11.75;;;;;;;;;;5060591;28;20032;-61
2022/01/23 15:01:40;;;;;;;21.20;11.80;;;;;;;;;;5065779;28;20082;-61
2022/01/23 15:04:08;;;;;;;21.67;11.93;;;;;;;;;;5067649;28;20115;-61
2022/01/23 15:06:33;;;;;;;21.80;11.80;;;;;;;;;;5070684;28;20048;-62
2022/01/23 15:09:03;;;;;;;24.23;13.25;;;;;;;;;;5067945;28;20138;-61
2022/01/23 15:11:28;;;;;;;25.20;13.02;;;;;;;;;;5068666;28;20098;-61
2022/01/23 15:13:54;;;;;;;25.48;13.63;;;;;;;;;;5068052;28;20479;-62
2022/01/23 15:16:19;;;;;;;24.92;14.02;;;;;;;;;;5067315;28;20559;-62
2022/01/23 15:18:44;;;;;;;23.63;12.50;;;;;;;;;;5066998;28;20032;-63
2022/01/23 15:21:09;;;;;;;25.13;13.70;;;;;;;;;;5069063;28;20032;-61
2022/01/23 15:23:34;;;;;;;26.20;13.77;;;;;;;;;;5071014;28;20040;-62
2022/01/23 15:26:00;;;;;;;24.67;13.65;;;;;;;;;;5066825;28;20035;-62
2022/01/23 15:28:26;;;;;;;26.13;13.77;;;;;;;;;;5063102;28;20029;-62
2022/01/23 15:30:52;;;;;;;28.38;14.85;;;;;;;;;;5066246;28;20025;-62
2022/01/23 15:33:17;;;;;;;25.05;14.52;;;;;;;;;;5068775;28;20024;-63
2022/01/23 15:35:47;;;;;;;26.83;14.98;;;;;;;;;;5068955;28;20083;-62
2022/01/23 15:38:12;;;;;;;28.23;15.32;;;;;;;;;;5066048;28;20074;-60
2022/01/23 15:40:37;;;;;;;30.75;17.35;;;;;;;;;;5064214;28;20103;-62
2022/01/23 15:43:03;;;;;;;27.27;14.77;;;;;;;;;;5064482;28;20333;-61
2022/01/23 15:45:28;;;;;;;29.65;15.75;;;;;;;;;;5061250;28;20120;-61
2022/01/23 15:47:53;;;;;;;27.77;15.55;;;;;;;;;;5061438;28;21504;-64
2022/01/23 15:50:19;;;;;;;25.40;14.45;;;;;;;;;;5056938;28;20035;-63
2022/01/23 15:52:45;;;;;;;26.27;14.35;;;;;;;;;;5063302;28;20753;-62
2022/01/23 15:55:11;;;;;;;24.38;14.60;;;;;;;;;;5068856;28;20032;-62
2022/01/23 15:57:36;;;;;;;24.88;15.13;;;;;;;;;;5065556;28;20025;-62
2022/01/23 16:00:03;;;;;;;24.42;14.00;;;;;;;;;;5065140;28;20089;-62
2022/01/23 16:02:29;;;;;;;25.40;14.20;;;;;;;;;;5069998;28;20776;-62
2022/01/23 16:04:54;;;;;;;28.80;16.70;;;;;;;;;;5069862;28;20039;-62
2022/01/23 16:07:19;;;;;;;31.42;17.77;;;;;;;;;;5062960;28;20037;-62
2022/01/23 16:09:45;;;;;;;29.23;14.75;;;;;;;;;;5069456;28;20029;-62
2022/01/23 16:12:11;;;;;;;24.30;13.50;;;;;;;;;;5063739;28;20021;-63
2022/01/23 16:14:36;;;;;;;24.60;13.43;;;;;;;;;;5068697;28;20044;-64
2022/01/23 16:17:02;;;;;;;22.33;12.52;;;;;;;;;;5061178;28;20051;-62
2022/01/23 16:19:27;;;;;;;20.55;11.32;;;;;;;;;;5068839;28;20555;-62
2022/01/23 16:21:55;;;;;;;24.17;13.32;;;;;;;;;;5066670;28;20108;-62
2022/01/23 16:24:21;;;;;;;24.65;13.63;;;;;;;;;;5068351;28;20484;-63
2022/01/23 16:26:48;;;;;;;24.83;14.70;;;;;;;;;;5068563;28;20059;-61
2022/01/23 16:29:13;;;;;;;25.23;14.57;;;;;;;;;;5069614;28;20352;-63
2022/01/23 16:31:39;;;;;;;26.98;14.60;;;;;;;;;;5066412;28;20029;-62
2022/01/23 16:34:04;;;;;;;23.77;12.50;;;;;;;;;;5062827;28;20032;-62
2022/01/23 16:36:31;;;;;;;24.58;13.52;;;;;;;;;;5068606;28;20039;-62
2022/01/23 16:38:57;;;;;;;23.80;13.48;;;;;;;;;;5066307;28;20110;-62
2022/01/23 16:41:22;;;;;;;25.15;13.50;;;;;;;;;;5064308;28;20115;-62
2022/01/23 16:43:47;;;;;;;24.17;13.23;;;;;;;;;;5061883;28;20040;-62
2022/01/23 16:46:12;;;;;;;24.05;12.48;;;;;;;;;;5069723;28;20115;-62
2022/01/23 16:48:37;;;;;;;23.60;12.85;;;;;;;;;;5056555;28;20082;-61
2022/01/23 16:51:03;;;;;;;24.20;13.57;;;;;;;;;;5065986;28;20028;-62
2022/01/23 16:53:29;;;;;;;26.23;13.95;;;;;;;;;;5066796;28;20060;-62
2022/01/23 16:55:57;;;;;;;24.60;13.55;;;;;;;;;;5055542;28;20198;-62
2022/01/23 16:58:29;;;;;;;25.30;13.40;;;;;;;;;;5062164;28;20050;-62
2022/01/23 17:00:55;;;;;;;25.08;13.05;;;;;;;;;;5057877;28;20032;-61
2022/01/23 17:03:20;;;;;;;25.23;13.38;;;;;;;;;;5061117;28;20025;-61
2022/01/23 17:05:46;;;;;;;25.25;13.90;;;;;;;;;;5062239;28;20027;-63
2022/01/23 17:08:14;;;;;;;26.33;14.55;;;;;;;;;;5062475;28;20087;-62
2022/01/23 17:10:40;;;;;;;24.00;13.15;;;;;;;;;;5058149;28;20044;-62
2022/01/23 17:13:05;;;;;;;23.05;13.15;;;;;;;;;;5058882;28;20032;-62
2022/01/23 17:15:31;;;;;;;25.17;13.65;;;;;;;;;;5067447;28;20064;-63
2022/01/23 17:17:56;;;;;;;26.55;14.93;;;;;;;;;;5071354;28;20103;-62
2022/01/23 17:20:22;;;;;;;26.10;14.30;;;;;;;;;;5069588;28;20028;-61
2022/01/23 17:22:47;;;;;;;26.23;14.35;;;;;;;;;;5066384;28;20396;-64
2022/01/23 17:25:13;;;;;;;24.55;14.38;;;;;;;;;;5060571;28;20024;-62
2022/01/23 17:27:38;;;;;;;25.52;13.48;;;;;;;;;;5060827;28;20672;-62
2022/01/23 17:30:03;;;;;;;22.70;12.70;;;;;;;;;;5067317;28;20530;-61
2022/01/23 17:32:29;;;;;;;23.25;12.50;;;;;;;;;;5058385;28;20079;-61
2022/01/23 17:34:54;;;;;;;23.55;13.15;;;;;;;;;;5064389;28;20040;-62
2022/01/23 17:37:19;;;;;;;25.70;14.55;;;;;;;;;;5063698;28;20028;-62
2022/01/23 17:39:44;;;;;;;25.05;14.40;;;;;;;;;;5068715;28;20024;-62
2022/01/23 17:42:11;;;;;;;23.95;12.73;;;;;;;;;;5056278;28;20348;-62
2022/01/23 17:44:39;;;;;;;26.30;13.35;;;;;;;;;;5068583;28;20016;-61
2022/01/23 17:47:19;;;;;;;23.67;13.32;;;;;;;;;;5060578;28;20498;-62